createdAt,value
2022-11-20T00:01:42.568Z,107.83
2022-11-20T00:04:30.546Z,115.03
2022-11-20T00:07:18.581Z,109.47
2022-11-20T00:10:07.492Z,109.70
2022-11-20T00:12:55.384Z,119.70
2022-11-20T00:15:43.349Z,114.67
2022-11-20T00:18:34.101Z,106.13
2022-11-20T00:21:23.733Z,110.50
2022-11-20T00:24:12.017Z,106.97
2022-11-20T00:26:59.943Z,105.43
2022-11-20T00:29:48.047Z,107.57
2022-11-20T00:32:36.029Z,107.30
2022-11-20T00:35:25.350Z,125.30
2022-11-20T00:38:13.299Z,109.77
2022-11-20T00:41:03.265Z,110.40
2022-11-20T00:43:51.460Z,103.17
2022-11-20T00:46:39.373Z,105.23
2022-11-20T00:49:27.330Z,104.07
2022-11-20T00:52:16.887Z,99.53
2022-11-20T00:55:05.221Z,105.63
2022-11-20T00:57:53.191Z,100.70
2022-11-20T01:00:41.197Z,108.37
2022-11-20T01:03:29.146Z,113.50
2022-11-20T01:06:19.073Z,113.17
2022-11-20T01:09:12.299Z,116.20
2022-11-20T01:12:00.250Z,103.83
2022-11-20T01:14:49.313Z,112.50
2022-11-20T01:17:37.238Z,101.80
2022-11-20T01:20:25.162Z,117.23
2022-11-20T01:23:13.156Z,118.23
2022-11-20T01:26:04.606Z,120.17
2022-11-20T01:28:53.398Z,114.77
2022-11-20T01:31:41.417Z,109.60
2022-11-20T01:34:29.382Z,105.73
2022-11-20T01:37:17.335Z,107.33
2022-11-20T01:40:06.545Z,111.93
2022-11-20T01:43:22.882Z,102.57
2022-11-20T01:46:17.625Z,109.93
2022-11-20T01:49:10.680Z,104.60
2022-11-20T01:52:02.933Z,107.90
2022-11-20T01:54:54.786Z,108.20
2022-11-20T01:57:43.458Z,112.17
2022-11-20T02:00:33.105Z,116.70
2022-11-20T02:03:22.208Z,104.13
2022-11-20T02:06:16.372Z,116.20
2022-11-20T02:09:04.459Z,109.57
2022-11-20T02:11:53.267Z,110.13
2022-11-20T02:14:40.265Z,109.57
2022-11-20T02:17:29.914Z,112.03
2022-11-20T02:20:18.111Z,111.90
2022-11-20T02:23:14.000Z,125.97
2022-11-20T02:26:06.557Z,120.67
2022-11-20T02:28:54.668Z,117.67
2022-11-20T02:31:44.688Z,117.80
2022-11-20T02:34:32.648Z,114.60
2022-11-20T02:37:21.925Z,107.00
2022-11-20T02:40:11.151Z,106.63
2022-11-20T02:43:00.442Z,111.80
2022-11-20T02:45:48.371Z,120.00
2022-11-20T02:48:36.391Z,118.80
2022-11-20T02:51:24.724Z,113.37
2022-11-20T02:54:12.713Z,124.73
2022-11-20T02:57:00.637Z,120.30
2022-11-20T02:59:49.938Z,123.63
2022-11-20T03:02:37.901Z,122.43
2022-11-20T03:05:25.847Z,113.57
2022-11-20T03:08:13.774Z,116.53
2022-11-20T03:11:04.958Z,120.03
2022-11-20T03:13:52.917Z,114.30
2022-11-20T03:16:42.516Z,115.83
2022-11-20T03:19:30.490Z,112.03
2022-11-20T03:22:18.414Z,111.37
2022-11-20T03:25:07.103Z,115.97
2022-11-20T03:27:55.780Z,115.10
2022-11-20T03:30:43.747Z,111.53
2022-11-20T03:33:33.012Z,111.93
2022-11-20T03:36:22.500Z,122.73
2022-11-20T03:39:11.069Z,119.37
2022-11-20T03:41:59.013Z,117.90
2022-11-20T03:44:46.949Z,116.70
2022-11-20T03:47:34.951Z,120.17
2022-11-20T03:50:24.327Z,113.73
2022-11-20T03:53:12.318Z,120.27
2022-11-20T03:56:00.285Z,118.97
2022-11-20T03:58:48.245Z,112.13
2022-11-20T04:01:38.802Z,129.30
2022-11-20T04:04:26.815Z,121.27
2022-11-20T04:07:16.444Z,119.30
2022-11-20T04:10:04.875Z,125.90
2022-11-20T04:12:52.808Z,123.60
2022-11-20T04:15:40.738Z,119.80
2022-11-20T04:18:28.641Z,118.13
2022-11-20T04:21:16.560Z,116.13
2022-11-20T04:24:06.393Z,117.70
2022-11-20T04:26:54.308Z,119.23
2022-11-20T04:29:42.255Z,118.03
2022-11-20T04:32:30.146Z,115.20
2022-11-20T04:35:18.036Z,121.43
2022-11-20T04:38:06.289Z,119.97
2022-11-20T04:41:00.143Z,119.77
2022-11-20T04:43:50.243Z,108.33
2022-11-20T04:46:40.639Z,108.73
2022-11-20T04:49:28.593Z,106.77
2022-11-20T04:52:16.647Z,115.37
2022-11-20T04:55:05.094Z,114.63
2022-11-20T04:57:54.360Z,120.70
2022-11-20T05:00:42.491Z,122.40
2022-11-20T05:03:30.415Z,120.27
2022-11-20T05:06:20.257Z,113.97
2022-11-20T05:09:08.369Z,115.73
2022-11-20T05:11:56.312Z,125.37
2022-11-20T05:14:45.538Z,119.87
2022-11-20T05:17:33.461Z,113.80
2022-11-20T05:20:22.015Z,114.07
2022-11-20T05:23:09.939Z,110.83
2022-11-20T05:25:59.594Z,120.50
2022-11-20T05:28:47.892Z,122.60
2022-11-20T05:31:38.127Z,113.90
2022-11-20T05:34:26.047Z,129.83
2022-11-20T05:37:14.006Z,132.20
2022-11-20T05:40:01.928Z,123.17
2022-11-20T05:42:49.875Z,137.00
2022-11-20T05:45:37.780Z,126.73
2022-11-20T05:48:27.048Z,127.43
2022-11-20T05:51:18.161Z,139.40
2022-11-20T05:54:06.202Z,126.77
2022-11-20T05:56:54.115Z,131.57
2022-11-20T05:59:42.174Z,129.83
2022-11-20T06:02:30.321Z,132.20
2022-11-20T06:05:19.603Z,133.00
2022-11-20T06:08:07.499Z,119.57
2022-11-20T06:10:55.398Z,132.60
2022-11-20T06:13:43.934Z,130.73
2022-11-20T06:16:31.922Z,132.90
2022-11-20T06:19:20.229Z,124.90
2022-11-20T06:22:09.664Z,123.20
2022-11-20T06:24:57.589Z,134.37
2022-11-20T06:27:45.549Z,124.30
2022-11-20T06:30:33.717Z,138.70
2022-11-20T06:33:21.618Z,139.83
2022-11-20T06:36:11.101Z,134.30
2022-11-20T06:39:00.994Z,121.27
2022-11-20T06:41:48.913Z,137.90
2022-11-20T06:44:36.849Z,137.17
2022-11-20T06:47:24.876Z,143.47
2022-11-20T06:50:12.797Z,136.33
2022-11-20T06:53:03.065Z,137.53
2022-11-20T06:55:53.482Z,123.73
2022-11-20T06:58:41.411Z,124.90
2022-11-20T07:01:29.308Z,127.30
2022-11-20T07:03:56.898Z,136.50
2022-11-20T07:06:24.520Z,134.57
2022-11-20T07:08:53.271Z,140.73
2022-11-20T07:11:22.314Z,142.23
2022-11-20T07:13:49.971Z,130.93
2022-11-20T07:16:17.901Z,135.73
2022-11-20T07:18:50.182Z,141.67
2022-11-20T07:21:18.346Z,148.70
2022-11-20T07:23:46.016Z,140.10
2022-11-20T07:26:13.625Z,138.30
2022-11-20T07:28:46.201Z,144.70
2022-11-20T07:31:18.774Z,132.67
2022-11-20T07:33:47.198Z,140.93
2022-11-20T07:36:14.975Z,145.80
2022-11-20T07:38:42.668Z,145.67
2022-11-20T07:41:10.266Z,150.43
2022-11-20T07:43:41.218Z,142.07
2022-11-20T07:46:10.748Z,147.63
2022-11-20T07:48:38.384Z,142.27
2022-11-20T07:51:06.065Z,141.53
2022-11-20T07:53:33.744Z,146.87
2022-11-20T07:56:02.699Z,164.23
2022-11-20T07:58:33.728Z,151.60
2022-11-20T08:01:05.226Z,141.77
2022-11-20T08:03:34.734Z,141.37
2022-11-20T08:06:03.383Z,150.50
2022-11-20T08:08:33.847Z,146.23
2022-11-20T08:11:15.867Z,148.53
2022-11-20T08:14:01.030Z,135.73
2022-11-20T08:16:28.992Z,137.13
2022-11-20T08:18:58.271Z,146.07
2022-11-20T08:21:25.932Z,151.90
2022-11-20T08:23:53.800Z,146.57
2022-11-20T08:26:22.978Z,148.50
2022-11-20T08:28:50.593Z,153.90
2022-11-20T08:31:18.218Z,147.47
2022-11-20T08:33:45.936Z,159.27
2022-11-20T08:36:14.890Z,157.47
2022-11-20T08:38:42.677Z,151.83
2022-11-20T08:41:26.552Z,144.83
2022-11-20T08:43:57.469Z,145.70
2022-11-20T08:46:26.557Z,148.80
2022-11-20T08:48:54.801Z,158.30
2022-11-20T08:51:23.785Z,133.23
2022-11-20T08:53:51.420Z,159.23
2022-11-20T08:56:19.365Z,160.57
2022-11-20T08:59:17.864Z,160.27
2022-11-20T09:01:34.677Z,145.83
2022-11-20T09:04:02.401Z,145.70
2022-11-20T09:06:31.379Z,138.90
2022-11-20T09:09:03.493Z,152.60
2022-11-20T09:11:33.925Z,147.33
2022-11-20T09:14:03.575Z,150.37
2022-11-20T09:16:31.505Z,141.43
2022-11-20T09:19:20.590Z,154.53
2022-11-20T09:21:48.241Z,143.73
2022-11-20T09:24:15.846Z,156.53
2022-11-20T09:26:43.659Z,147.53
2022-11-20T09:29:11.726Z,158.30
2022-11-20T09:31:39.370Z,149.23
2022-11-20T09:34:07.112Z,154.43
2022-11-20T09:36:34.799Z,150.33
2022-11-20T09:39:04.466Z,158.80
2022-11-20T09:41:46.789Z,152.20
2022-11-20T09:44:28.493Z,153.13
2022-11-20T09:47:03.843Z,147.93
2022-11-20T09:49:43.138Z,143.93
2022-11-20T09:52:20.773Z,147.80
2022-11-20T09:54:52.428Z,142.47
2022-11-20T09:57:25.040Z,153.73
2022-11-20T09:59:58.154Z,153.23
2022-11-20T10:02:32.346Z,146.77
2022-11-20T10:05:06.085Z,154.27
2022-11-20T10:07:41.065Z,148.67
2022-11-20T10:10:18.209Z,146.13
2022-11-20T10:13:02.299Z,145.67
2022-11-20T10:15:38.758Z,132.93
2022-11-20T10:18:17.389Z,139.23
2022-11-20T10:20:50.644Z,135.03
2022-11-20T10:23:35.710Z,145.07
2022-11-20T10:26:16.203Z,159.30
2022-11-20T10:28:59.274Z,139.97
2022-11-20T10:31:33.489Z,139.87
2022-11-20T10:34:12.132Z,134.53
2022-11-20T10:36:47.144Z,153.00
2022-11-20T10:39:21.327Z,153.03
2022-11-20T10:41:53.731Z,142.53
2022-11-20T10:44:37.263Z,146.33
2022-11-20T10:47:06.437Z,165.43
2022-11-20T10:49:35.606Z,158.20
2022-11-20T10:52:11.937Z,165.33
2022-11-20T10:54:49.343Z,163.73
2022-11-20T10:57:28.612Z,164.93
2022-11-20T11:00:06.777Z,163.50
2022-11-20T11:02:41.158Z,161.67
2022-11-20T11:05:27.823Z,168.33
2022-11-20T11:07:58.317Z,167.90
2022-11-20T11:10:33.245Z,168.83
2022-11-20T11:13:02.336Z,166.43
2022-11-20T11:15:31.469Z,162.47
2022-11-20T11:17:59.177Z,172.23
2022-11-20T11:20:27.922Z,187.87
2022-11-20T11:22:58.141Z,161.53
2022-11-20T11:25:31.634Z,148.27
2022-11-20T11:28:01.288Z,175.33
2022-11-20T11:30:33.019Z,165.57
2022-11-20T11:33:08.846Z,162.33
2022-11-20T11:35:50.029Z,169.90
2022-11-20T11:38:24.040Z,150.83
2022-11-20T11:40:51.800Z,157.67
2022-11-20T11:43:40.217Z,159.47
2022-11-20T11:46:26.916Z,153.40
2022-11-20T11:49:02.731Z,157.50
2022-11-20T11:51:36.754Z,157.77
2022-11-20T11:54:12.486Z,168.23
2022-11-20T11:56:40.359Z,172.43
2022-11-20T11:59:16.947Z,169.77
2022-11-20T12:01:52.208Z,164.37
2022-11-20T12:04:25.783Z,171.73
2022-11-20T12:07:00.474Z,175.53
2022-11-20T12:09:36.778Z,163.73
2022-11-20T12:12:10.895Z,163.43
2022-11-20T12:14:40.862Z,156.60
2022-11-20T12:17:13.690Z,161.53
2022-11-20T12:19:42.219Z,175.00
2022-11-20T12:22:26.444Z,163.83
2022-11-20T12:25:00.139Z,172.20
2022-11-20T12:27:57.816Z,167.17
2022-11-20T12:30:26.148Z,141.40
2022-11-20T12:33:11.691Z,158.80
2022-11-20T12:35:50.604Z,153.83
2022-11-20T12:38:52.997Z,170.73
2022-11-20T12:41:48.537Z,136.60
2022-11-20T12:44:47.903Z,138.33
2022-11-20T12:47:26.055Z,142.63
2022-11-20T12:50:04.425Z,148.97
2022-11-20T12:52:46.768Z,151.03
2022-11-20T12:55:22.502Z,154.43
2022-11-20T12:57:56.239Z,166.90
2022-11-20T13:00:25.707Z,173.90
2022-11-20T13:03:08.761Z,167.03
2022-11-20T13:05:49.266Z,166.97
2022-11-20T13:08:22.633Z,172.43
2022-11-20T13:10:53.926Z,183.47
2022-11-20T13:13:30.266Z,187.87
2022-11-20T13:16:04.884Z,196.23
2022-11-20T13:18:40.212Z,192.13
2022-11-20T13:21:17.883Z,173.97
2022-11-20T13:23:45.774Z,181.20
2022-11-20T13:26:22.562Z,190.20
2022-11-20T13:29:04.495Z,180.90
2022-11-20T13:31:34.998Z,188.73
2022-11-20T13:34:06.226Z,194.27
2022-11-20T13:36:37.444Z,203.00
2022-11-20T13:39:05.368Z,195.70
2022-11-20T13:41:36.317Z,207.77
2022-11-20T13:44:14.737Z,214.20
2022-11-20T13:46:45.607Z,215.53
2022-11-20T13:49:20.460Z,209.90
2022-11-20T13:51:52.329Z,211.53
2022-11-20T13:54:52.606Z,202.73
2022-11-20T13:57:40.970Z,187.63
2022-11-20T14:00:14.541Z,209.03
2022-11-20T14:02:43.113Z,225.07
2022-11-20T14:05:21.266Z,213.30
2022-11-20T14:07:52.235Z,210.50
2022-11-20T14:10:30.076Z,221.13
2022-11-20T14:12:59.709Z,205.47
2022-11-20T14:15:30.282Z,220.60
2022-11-20T14:17:58.151Z,206.53
2022-11-20T14:20:28.597Z,199.70
2022-11-20T14:22:57.777Z,202.27
2022-11-20T14:25:28.123Z,207.30
2022-11-20T14:27:58.255Z,194.33
2022-11-20T14:30:28.273Z,200.17
2022-11-20T14:32:59.213Z,196.13
2022-11-20T14:35:29.339Z,200.70
2022-11-20T14:37:59.484Z,217.30
2022-11-20T14:40:31.077Z,193.40
2022-11-20T14:43:00.212Z,198.43
2022-11-20T14:45:28.959Z,197.93
2022-11-20T14:47:59.654Z,193.17
2022-11-20T14:50:28.945Z,198.07
2022-11-20T14:52:59.821Z,205.73
2022-11-20T14:55:31.871Z,200.23
2022-11-20T14:58:01.805Z,203.60
2022-11-20T15:00:30.894Z,184.27
2022-11-20T15:02:58.836Z,187.30
2022-11-20T15:05:45.596Z,189.47
2022-11-20T15:08:15.873Z,164.80
2022-11-20T15:10:48.663Z,164.00
2022-11-20T15:13:21.041Z,175.20
2022-11-20T15:15:50.619Z,164.20
2022-11-20T15:18:21.357Z,162.30
2022-11-20T15:20:49.854Z,152.73
2022-11-20T15:23:20.894Z,164.07
2022-11-20T15:25:49.814Z,154.97
2022-11-20T15:28:21.226Z,154.57
2022-11-20T15:30:49.926Z,164.17
2022-11-20T15:33:18.384Z,167.00
2022-11-20T15:35:46.364Z,163.03
2022-11-20T15:38:14.149Z,165.97
2022-11-20T15:40:43.222Z,172.57
2022-11-20T15:43:13.621Z,169.20
2022-11-20T15:45:44.605Z,176.70
2022-11-20T15:48:15.879Z,157.30
2022-11-20T15:50:52.745Z,153.63
2022-11-20T15:53:20.512Z,167.40
2022-11-20T15:55:49.595Z,177.83
2022-11-20T15:58:18.098Z,173.27
2022-11-20T16:00:46.379Z,162.57
2022-11-20T16:03:14.390Z,168.00
2022-11-20T16:05:42.802Z,166.37
2022-11-20T16:08:12.002Z,164.37
2022-11-20T16:10:40.366Z,165.47
2022-11-20T16:13:31.669Z,176.77
2022-11-20T16:16:02.041Z,154.00
2022-11-20T16:18:29.825Z,161.87
2022-11-20T16:20:57.595Z,157.67
2022-11-20T16:23:25.346Z,164.60
2022-11-20T16:25:53.409Z,179.27
2022-11-20T16:28:22.437Z,172.80
2022-11-20T16:30:50.131Z,165.20
2022-11-20T16:33:19.129Z,168.27
2022-11-20T16:35:46.779Z,184.50
2022-11-20T16:38:14.447Z,174.67
2022-11-20T16:40:42.147Z,182.53
2022-11-20T16:43:12.250Z,168.70
2022-11-20T16:45:44.505Z,177.40
2022-11-20T16:48:17.357Z,172.60
2022-11-20T16:50:50.462Z,163.03
2022-11-20T16:53:18.380Z,168.70
2022-11-20T16:55:46.245Z,186.37
2022-11-20T16:58:13.949Z,167.00
2022-11-20T17:00:48.373Z,180.00
2022-11-20T17:03:18.010Z,166.30
2022-11-20T17:05:45.700Z,176.80
2022-11-20T17:08:13.402Z,168.50
2022-11-20T17:10:42.467Z,165.13
2022-11-20T17:13:10.163Z,166.90
2022-11-20T17:15:37.786Z,176.23
2022-11-20T17:18:06.941Z,164.77
2022-11-20T17:20:34.623Z,169.73
2022-11-20T17:23:02.356Z,177.20
2022-11-20T17:25:30.009Z,171.73
2022-11-20T17:27:57.757Z,161.80
2022-11-20T17:30:25.490Z,154.67
2022-11-20T17:32:53.208Z,162.43
2022-11-20T17:35:22.227Z,158.07
2022-11-20T17:37:49.947Z,162.90
2022-11-20T17:40:19.302Z,163.43
2022-11-20T17:42:49.652Z,166.97
2022-11-20T17:45:17.396Z,143.20
2022-11-20T17:47:46.541Z,167.30
2022-11-20T17:50:14.236Z,147.17
2022-11-20T17:52:43.247Z,157.17
2022-11-20T17:55:11.027Z,161.77
2022-11-20T17:57:52.929Z,154.80
2022-11-20T18:00:22.190Z,137.43
2022-11-20T18:02:49.995Z,140.50
2022-11-20T18:05:17.816Z,149.37
2022-11-20T18:07:46.980Z,150.93
2022-11-20T18:10:14.833Z,153.40
2022-11-20T18:12:42.546Z,158.03
2022-11-20T18:15:10.637Z,138.33
2022-11-20T18:17:38.316Z,142.47
2022-11-20T18:22:58.426Z,144.53
2022-11-20T18:25:26.197Z,153.37
2022-11-20T18:27:53.889Z,140.53
2022-11-20T18:30:21.785Z,148.30
2022-11-20T18:32:50.028Z,143.00
2022-11-20T18:35:17.870Z,156.93
2022-11-20T18:37:45.731Z,145.23
2022-11-20T18:40:15.321Z,143.67
2022-11-20T18:43:00.784Z,143.13
2022-11-20T18:45:30.226Z,142.93
2022-11-20T18:47:57.833Z,141.47
2022-11-20T18:50:25.536Z,139.97
2022-11-20T18:52:53.228Z,135.67
2022-11-20T18:55:24.932Z,142.30
2022-11-20T18:57:52.669Z,127.33
2022-11-20T19:00:20.613Z,134.63
2022-11-20T19:02:48.427Z,123.77
2022-11-20T19:05:16.320Z,142.23
2022-11-20T19:07:44.239Z,136.63
2022-11-20T19:10:12.194Z,124.53
2022-11-20T19:12:41.147Z,130.27
2022-11-20T19:15:09.455Z,141.80
2022-11-20T19:17:37.628Z,128.83
2022-11-20T19:20:05.940Z,122.83
2022-11-20T19:22:33.653Z,119.27
2022-11-20T19:25:01.322Z,118.80
2022-11-20T19:27:28.958Z,128.60
2022-11-20T19:30:03.034Z,137.87
2022-11-20T19:32:31.168Z,127.43
2022-11-20T19:34:58.906Z,118.40
2022-11-20T19:37:26.548Z,118.07
2022-11-20T19:39:56.595Z,118.37
2022-11-20T19:42:24.491Z,119.80
2022-11-20T19:44:52.875Z,116.53
2022-11-20T19:47:22.940Z,129.03
2022-11-20T19:49:50.737Z,123.87
2022-11-20T19:52:18.419Z,126.80
2022-11-20T19:54:46.199Z,126.43
2022-11-20T19:57:13.817Z,135.60
2022-11-20T19:59:41.743Z,126.90
2022-11-20T20:02:12.068Z,126.93
2022-11-20T20:04:41.041Z,140.03
2022-11-20T20:07:08.698Z,139.00
2022-11-20T20:09:36.435Z,126.00
2022-11-20T20:12:04.312Z,124.73
2022-11-20T20:14:32.083Z,119.70
2022-11-20T20:16:59.775Z,121.70
2022-11-20T20:19:27.486Z,120.90
2022-11-20T20:21:56.484Z,134.50
2022-11-20T20:24:24.125Z,124.37
2022-11-20T20:26:55.571Z,125.00
2022-11-20T20:29:26.130Z,126.83
2022-11-20T20:31:54.000Z,135.00
2022-11-20T20:34:22.689Z,131.30
2022-11-20T20:36:50.363Z,128.60
2022-11-20T20:39:19.686Z,134.53
2022-11-20T20:41:47.351Z,122.63
2022-11-20T20:44:32.776Z,131.47
2022-11-20T20:47:00.450Z,119.83
2022-11-20T20:49:28.350Z,136.97
2022-11-20T20:51:55.961Z,151.00
2022-11-20T20:54:24.961Z,126.00
2022-11-20T20:56:52.725Z,133.20
2022-11-20T20:59:20.415Z,116.63
2022-11-20T21:01:48.209Z,131.93
2022-11-20T21:04:34.790Z,130.00
2022-11-20T21:07:22.810Z,130.43
2022-11-20T21:10:12.203Z,126.13
2022-11-20T21:13:00.118Z,134.37
2022-11-20T21:15:49.905Z,121.67
2022-11-20T21:18:37.867Z,118.53
2022-11-20T21:21:43.513Z,120.93
2022-11-20T21:24:33.563Z,124.23
2022-11-20T21:27:22.832Z,122.90
2022-11-20T21:30:11.701Z,126.23
2022-11-20T21:32:59.651Z,122.03
2022-11-20T21:35:47.582Z,129.60
2022-11-20T21:38:35.827Z,126.03
2022-11-20T21:41:24.816Z,124.47
2022-11-20T21:44:30.542Z,127.10
2022-11-20T21:47:19.180Z,128.53
2022-11-20T21:50:07.647Z,136.03
2022-11-20T21:52:55.571Z,136.47
2022-11-20T21:55:43.480Z,138.43
2022-11-20T21:58:31.483Z,132.20
2022-11-20T22:01:24.289Z,126.67
2022-11-20T22:04:14.713Z,132.10
2022-11-20T22:07:02.728Z,128.73
2022-11-20T22:09:50.702Z,148.00
2022-11-20T22:12:38.799Z,126.97
2022-11-20T22:15:53.645Z,129.80
2022-11-20T22:18:35.055Z,125.87
2022-11-20T22:21:25.269Z,130.93
2022-11-20T22:24:14.086Z,136.63
2022-11-20T22:27:02.018Z,128.43
2022-11-20T22:29:50.032Z,144.17
2022-11-20T22:32:37.972Z,148.63
2022-11-20T22:35:27.270Z,138.70
2022-11-20T22:38:15.277Z,129.47
2022-11-20T22:41:03.980Z,137.07
2022-11-20T22:43:55.253Z,135.23
2022-11-20T22:46:43.570Z,145.77
2022-11-20T22:49:31.498Z,139.23
2022-11-20T22:52:20.781Z,145.07
2022-11-20T22:55:14.962Z,147.33
2022-11-20T22:58:04.183Z,137.70
2022-11-20T23:00:52.134Z,145.90
2022-11-20T23:03:41.702Z,145.00
2022-11-20T23:06:30.666Z,136.97
2022-11-20T23:09:19.911Z,143.47
2022-11-20T23:12:08.469Z,139.70
2022-11-20T23:14:56.395Z,146.73
2022-11-20T23:17:44.384Z,137.50
2022-11-20T23:20:32.311Z,137.73
2022-11-20T23:23:21.273Z,151.67
2022-11-20T23:26:12.459Z,124.17
2022-11-20T23:29:01.546Z,141.63
2022-11-20T23:31:49.530Z,141.23
2022-11-20T23:34:37.444Z,140.33
2022-11-20T23:37:25.394Z,149.83
2022-11-20T23:40:13.661Z,141.77
2022-11-20T23:43:17.863Z,141.57
2022-11-20T23:46:06.206Z,144.77
2022-11-20T23:48:54.147Z,134.73
2022-11-20T23:51:42.611Z,148.43
2022-11-20T23:54:30.540Z,154.80
2022-11-20T23:57:18.540Z,157.20
